sensor_id;sensor_type;location;lat;lon;timestamp;pressure;altitude;pressure_sealevel;temperature;humidity
64610;BME280;51019;46.090;6.350;2023-04-15T00:01:46;95732.78;;;7.05;100.00
64610;BME280;51019;46.090;6.350;2023-04-15T00:04:14;95730.91;;;6.97;100.00
64610;BME280;51019;46.090;6.350;2023-04-15T00:06:42;95738.56;;;6.89;100.00
64610;BME280;51019;46.090;6.350;2023-04-15T00:09:17;95729.00;;;6.80;100.00
64610;BME280;51019;46.090;6.350;2023-04-15T00:11:45;95735.31;;;6.87;100.00
64610;BME280;51019;46.090;6.350;2023-04-15T00:14:13;95724.63;;;6.71;100.00
64610;BME280;51019;46.090;6.350;2023-04-15T00:16:42;95727.22;;;6.71;100.00
64610;BME280;51019;46.090;6.350;2023-04-15T00:19:09;95729.56;;;6.74;100.00
64610;BME280;51019;46.090;6.350;2023-04-15T00:21:36;95720.78;;;6.75;100.00
64610;BME280;51019;46.090;6.350;2023-04-15T00:24:04;95697.78;;;6.61;100.00
64610;BME280;51019;46.090;6.350;2023-04-15T00:26:31;95714.47;;;6.87;100.00
64610;BME280;51019;46.090;6.350;2023-04-15T00:28:59;95722.25;;;7.06;100.00
64610;BME280;51019;46.090;6.350;2023-04-15T00:31:26;95730.19;;;7.05;100.00
64610;BME280;51019;46.090;6.350;2023-04-15T00:33:55;95610.38;;;6.10;100.00
64610;BME280;51019;46.090;6.350;2023-04-15T00:36:23;95722.13;;;6.88;100.00
64610;BME280;51019;46.090;6.350;2023-04-15T00:38:50;95732.41;;;6.90;100.00
64610;BME280;51019;46.090;6.350;2023-04-15T00:41:19;95726.38;;;6.80;100.00
64610;BME280;51019;46.090;6.350;2023-04-15T00:43:47;95718.34;;;6.64;100.00
64610;BME280;51019;46.090;6.350;2023-04-15T00:46:15;95734.22;;;6.61;100.00
64610;BME280;51019;46.090;6.350;2023-04-15T00:48:45;95727.91;;;6.82;100.00
64610;BME280;51019;46.090;6.350;2023-04-15T00:51:15;95723.25;;;6.86;100.00
64610;BME280;51019;46.090;6.350;2023-04-15T00:53:43;95724.34;;;6.83;100.00
64610;BME280;51019;46.090;6.350;2023-04-15T00:56:11;95718.03;;;6.86;100.00
64610;BME280;51019;46.090;6.350;2023-04-15T00:58:39;95706.38;;;6.71;100.00
64610;BME280;51019;46.090;6.350;2023-04-15T01:01:06;95700.50;;;6.88;100.00
64610;BME280;51019;46.090;6.350;2023-04-15T01:03:34;95704.34;;;6.74;100.00
64610;BME280;51019;46.090;6.350;2023-04-15T01:06:02;95645.75;;;6.32;100.00
64610;BME280;51019;46.090;6.350;2023-04-15T01:08:31;95621.75;;;6.28;100.00
64610;BME280;51019;46.090;6.350;2023-04-15T01:11:00;95646.69;;;6.40;100.00
64610;BME280;51019;46.090;6.350;2023-04-15T01:13:28;95694.75;;;6.75;100.00
64610;BME280;51019;46.090;6.350;2023-04-15T01:15:57;95723.25;;;6.76;100.00
64610;BME280;51019;46.090;6.350;2023-04-15T01:18:24;95724.34;;;6.74;100.00
64610;BME280;51019;46.090;6.350;2023-04-15T01:20:52;95730.38;;;6.74;100.00
64610;BME280;51019;46.090;6.350;2023-04-15T01:23:20;95737.50;;;6.43;100.00
64610;BME280;51019;46.090;6.350;2023-04-15T01:25:50;95747.38;;;6.69;100.00
64610;BME280;51019;46.090;6.350;2023-04-15T01:28:18;95746.28;;;6.62;100.00
64610;BME280;51019;46.090;6.350;2023-04-15T01:30:46;95720.25;;;6.62;100.00
64610;BME280;51019;46.090;6.350;2023-04-15T01:33:13;95749.00;;;6.70;100.00
64610;BME280;51019;46.090;6.350;2023-04-15T01:35:42;95744.34;;;6.92;100.00
64610;BME280;51019;46.090;6.350;2023-04-15T01:38:11;95722.44;;;6.76;100.00
64610;BME280;51019;46.090;6.350;2023-04-15T01:40:38;95743.50;;;6.92;100.00
64610;BME280;51019;46.090;6.350;2023-04-15T01:43:07;95661.34;;;6.41;100.00
64610;BME280;51019;46.090;6.350;2023-04-15T01:45:35;95711.31;;;6.83;100.00
64610;BME280;51019;46.090;6.350;2023-04-15T01:48:02;95731.06;;;6.86;100.00
64610;BME280;51019;46.090;6.350;2023-04-15T01:50:30;95725.44;;;6.62;100.00
64610;BME280;51019;46.090;6.350;2023-04-15T01:52:58;95719.03;;;6.66;100.00
64610;BME280;51019;46.090;6.350;2023-04-15T01:55:26;95714.47;;;6.77;100.00
64610;BME280;51019;46.090;6.350;2023-04-15T01:57:55;95709.94;;;6.70;100.00
64610;BME280;51019;46.090;6.350;2023-04-15T02:00:24;95723.00;;;6.50;100.00
64610;BME280;51019;46.090;6.350;2023-04-15T02:02:51;95727.38;;;6.60;100.00
64610;BME280;51019;46.090;6.350;2023-04-15T02:05:19;95736.25;;;6.57;100.00
64610;BME280;51019;46.090;6.350;2023-04-15T02:07:47;95650.66;;;6.15;100.00
64610;BME280;51019;46.090;6.350;2023-04-15T02:10:15;95719.69;;;6.58;100.00
64610;BME280;51019;46.090;6.350;2023-04-15T02:12:42;95729.41;;;6.56;100.00
64610;BME280;51019;46.090;6.350;2023-04-15T02:15:10;95722.28;;;6.68;100.00
64610;BME280;51019;46.090;6.350;2023-04-15T02:17:39;95706.66;;;6.77;100.00
64610;BME280;51019;46.090;6.350;2023-04-15T02:20:11;95726.13;;;6.64;100.00
64610;BME280;51019;46.090;6.350;2023-04-15T02:22:38;95729.41;;;6.37;100.00
64610;BME280;51019;46.090;6.350;2023-04-15T02:25:07;95724.47;;;6.34;100.00
64610;BME280;51019;46.090;6.350;2023-04-15T02:27:35;95648.06;;;6.06;100.00
64610;BME280;51019;46.090;6.350;2023-04-15T02:30:03;95701.88;;;6.34;100.00
64610;BME280;51019;46.090;6.350;2023-04-15T02:32:30;95727.75;;;6.55;100.00
64610;BME280;51019;46.090;6.350;2023-04-15T02:35:03;95715.75;;;6.54;100.00
64610;BME280;51019;46.090;6.350;2023-04-15T02:37:31;95619.84;;;6.01;100.00
64610;BME280;51019;46.090;6.350;2023-04-15T02:40:03;95719.44;;;6.42;100.00
64610;BME280;51019;46.090;6.350;2023-04-15T02:42:30;95706.38;;;6.32;100.00
64610;BME280;51019;46.090;6.350;2023-04-15T02:44:57;95716.97;;;6.50;100.00
64610;BME280;51019;46.090;6.350;2023-04-15T02:47:25;95708.47;;;6.29;100.00
64610;BME280;51019;46.090;6.350;2023-04-15T02:49:52;95667.63;;;6.00;100.00
64610;BME280;51019;46.090;6.350;2023-04-15T02:52:22;95702.84;;;6.33;100.00
64610;BME280;51019;46.090;6.350;2023-04-15T02:54:49;95621.09;;;5.97;100.00
64610;BME280;51019;46.090;6.350;2023-04-15T02:57:17;95669.69;;;6.26;100.00
64610;BME280;51019;46.090;6.350;2023-04-15T02:59:45;95673.50;;;6.02;100.00
64610;BME280;51019;46.090;6.350;2023-04-15T03:02:12;95717.22;;;6.18;100.00
64610;BME280;51019;46.090;6.350;2023-04-15T03:04:40;95714.75;;;6.16;100.00
64610;BME280;51019;46.090;6.350;2023-04-15T03:07:07;95716.41;;;6.17;100.00
64610;BME280;51019;46.090;6.350;2023-04-15T03:09:36;95693.25;;;6.05;100.00
64610;BME280;51019;46.090;6.350;2023-04-15T03:12:04;95734.19;;;6.22;100.00
64610;BME280;51019;46.090;6.350;2023-04-15T03:14:32;95661.88;;;5.97;100.00
64610;BME280;51019;46.090;6.350;2023-04-15T03:16:59;95718.88;;;6.38;100.00
64610;BME280;51019;46.090;6.350;2023-04-15T03:19:28;95721.88;;;6.24;100.00
64610;BME280;51019;46.090;6.350;2023-04-15T03:21:56;95688.97;;;5.94;100.00
64610;BME280;51019;46.090;6.350;2023-04-15T03:24:23;95714.44;;;6.10;100.00
64610;BME280;51019;46.090;6.350;2023-04-15T03:26:53;95707.91;;;6.25;100.00
64610;BME280;51019;46.090;6.350;2023-04-15T03:29:22;95703.00;;;6.41;100.00
64610;BME280;51019;46.090;6.350;2023-04-15T03:31:51;95684.34;;;6.36;100.00
64610;BME280;51019;46.090;6.350;2023-04-15T03:34:20;95681.63;;;6.18;100.00
64610;BME280;51019;46.090;6.350;2023-04-15T03:36:47;95675.03;;;6.05;100.00
64610;BME280;51019;46.090;6.350;2023-04-15T03:39:15;95702.00;;;6.33;100.00
64610;BME280;51019;46.090;6.350;2023-04-15T03:41:42;95710.94;;;6.30;100.00
64610;BME280;51019;46.090;6.350;2023-04-15T03:44:12;95704.06;;;6.48;100.00
64610;BME280;51019;46.090;6.350;2023-04-15T03:46:40;95707.50;;;6.39;100.00
64610;BME280;51019;46.090;6.350;2023-04-15T03:49:08;95703.66;;;6.43;100.00
64610;BME280;51019;46.090;6.350;2023-04-15T03:51:35;95705.72;;;6.49;100.00
64610;BME280;51019;46.090;6.350;2023-04-15T03:54:02;95702.44;;;6.47;100.00
64610;BME280;51019;46.090;6.350;2023-04-15T03:56:30;95710.94;;;6.21;100.00
64610;BME280;51019;46.090;6.350;2023-04-15T03:58:59;95701.59;;;6.37;100.00
64610;BME280;51019;46.090;6.350;2023-04-15T04:01:28;95705.88;;;6.29;100.00
64610;BME280;51019;46.090;6.350;2023-04-15T04:03:55;95696.28;;;6.39;100.00
64610;BME280;51019;46.090;6.350;2023-04-15T04:06:23;95697.34;;;6.17;100.00
64610;BME280;51019;46.090;6.350;2023-04-15T04:08:50;95701.72;;;6.07;100.00
64610;BME280;51019;46.090;6.350;2023-04-15T04:11:18;95674.59;;;6.00;100.00
64610;BME280;51019;46.090;6.350;2023-04-15T04:13:45;95697.50;;;6.25;100.00
64610;BME280;51019;46.090;6.350;2023-04-15T04:16:13;95685.97;;;5.99;100.00
64610;BME280;51019;46.090;6.350;2023-04-15T04:18:42;95666.22;;;5.87;100.00
64610;BME280;51019;46.090;6.350;2023-04-15T04:21:10;95696.41;;;6.08;100.00
64610;BME280;51019;46.090;6.350;2023-04-15T04:23:37;95647.00;;;5.68;100.00
64610;BME280;51019;46.090;6.350;2023-04-15T04:26:05;95702.56;;;5.98;100.00
64610;BME280;51019;46.090;6.350;2023-04-15T04:28:32;95702.81;;;6.14;100.00
64610;BME280;51019;46.090;6.350;2023-04-15T04:31:00;95703.34;;;5.98;100.00
64610;BME280;51019;46.090;6.350;2023-04-15T04:33:28;95703.09;;;6.11;100.00
64610;BME280;51019;46.090;6.350;2023-04-15T04:35:57;95642.44;;;5.91;100.00
64610;BME280;51019;46.090;6.350;2023-04-15T04:38:25;95694.19;;;6.23;100.00
64610;BME280;51019;46.090;6.350;2023-04-15T04:40:52;95695.16;;;6.22;100.00
64610;BME280;51019;46.090;6.350;2023-04-15T04:43:20;95702.69;;;6.25;100.00
64610;BME280;51019;46.090;6.350;2023-04-15T04:45:47;95695.03;;;6.24;100.00
64610;BME280;51019;46.090;6.350;2023-04-15T04:48:14;95601.28;;;5.56;100.00
64610;BME280;51019;46.090;6.350;2023-04-15T04:50:42;95701.88;;;6.05;100.00
64610;BME280;51019;46.090;6.350;2023-04-15T04:53:14;95702.94;;;6.03;100.00
64610;BME280;51019;46.090;6.350;2023-04-15T04:55:42;95686.91;;;5.88;100.00
64610;BME280;51019;46.090;6.350;2023-04-15T04:58:10;95691.84;;;6.01;100.00
64610;BME280;51019;46.090;6.350;2023-04-15T05:00:39;95691.31;;;6.07;100.00
64610;BME280;51019;46.090;6.350;2023-04-15T05:03:06;95688.28;;;5.92;100.00
64610;BME280;51019;46.090;6.350;2023-04-15T05:05:33;95690.06;;;6.01;100.00
64610;BME280;51019;46.090;6.350;2023-04-15T05:08:04;95688.88;;;6.15;100.00
64610;BME280;51019;46.090;6.350;2023-04-15T05:10:33;95579.38;;;5.30;100.00
64610;BME280;51019;46.090;6.350;2023-04-15T05:13:00;95688.16;;;5.94;100.00
64610;BME280;51019;46.090;6.350;2023-04-15T05:15:27;95682.13;;;6.03;100.00
64610;BME280;51019;46.090;6.350;2023-04-15T05:17:55;95613.59;;;5.54;100.00
64610;BME280;51019;46.090;6.350;2023-04-15T05:20:22;95692.84;;;6.09;100.00
64610;BME280;51019;46.090;6.350;2023-04-15T05:22:50;95694.75;;;6.27;100.00
64610;BME280;51019;46.090;6.350;2023-04-15T05:25:17;95707.06;;;6.15;100.00
64610;BME280;51019;46.090;6.350;2023-04-15T05:27:46;95695.84;;;6.34;100.00
64610;BME280;51019;46.090;6.350;2023-04-15T05:30:14;95699.97;;;6.36;100.00
64610;BME280;51019;46.090;6.350;2023-04-15T05:32:41;95574.22;;;5.78;100.00
64610;BME280;51019;46.090;6.350;2023-04-15T05:35:08;95589.06;;;5.97;100.00
64610;BME280;51019;46.090;6.350;2023-04-15T05:37:36;95603.16;;;6.13;100.00
64610;BME280;51019;46.090;6.350;2023-04-15T05:40:05;95665.84;;;6.49;100.00
64610;BME280;51019;46.090;6.350;2023-04-15T05:42:34;95581.25;;;5.97;100.00
64610;BME280;51019;46.090;6.350;2023-04-15T05:45:04;95515.78;;;5.53;100.00
64610;BME280;51019;46.090;6.350;2023-04-15T05:47:34;95652.16;;;6.28;100.00
64610;BME280;51019;46.090;6.350;2023-04-15T05:50:01;95630.94;;;5.94;100.00
64610;BME280;51019;46.090;6.350;2023-04-15T05:52:30;95681.31;;;6.22;100.00
64610;BME280;51019;46.090;6.350;2023-04-15T05:54:57;95681.75;;;6.27;100.00
64610;BME280;51019;46.090;6.350;2023-04-15T05:57:24;95686.94;;;6.46;100.00
64610;BME280;51019;46.090;6.350;2023-04-15T05:59:52;95560.28;;;5.60;100.00
64610;BME280;51019;46.090;6.350;2023-04-15T06:02:23;95708.44;;;6.57;100.00
64610;BME280;51019;46.090;6.350;2023-04-15T06:04:51;95699.97;;;6.36;100.00
64610;BME280;51019;46.090;6.350;2023-04-15T06:07:18;95699.81;;;6.47;100.00
64610;BME280;51019;46.090;6.350;2023-04-15T06:09:46;95607.63;;;5.82;100.00
64610;BME280;51019;46.090;6.350;2023-04-15T06:12:13;95719.28;;;6.43;100.00
64610;BME280;51019;46.090;6.350;2023-04-15T06:14:41;95591.97;;;5.44;100.00
64610;BME280;51019;46.090;6.350;2023-04-15T06:17:09;95730.75;;;6.22;100.00
64610;BME280;51019;46.090;6.350;2023-04-15T06:19:40;95681.53;;;5.80;100.00
64610;BME280;51019;46.090;6.350;2023-04-15T06:22:08;95731.63;;;6.32;100.00
64610;BME280;51019;46.090;6.350;2023-04-15T06:24:35;95697.78;;;6.32;100.00
64610;BME280;51019;46.090;6.350;2023-04-15T06:27:03;95705.72;;;6.30;100.00
64610;BME280;51019;46.090;6.350;2023-04-15T06:29:30;95743.81;;;6.41;100.00
64610;BME280;51019;46.090;6.350;2023-04-15T06:31:58;95699.28;;;6.34;100.00
64610;BME280;51019;46.090;6.350;2023-04-15T06:34:25;95735.88;;;6.62;100.00
64610;BME280;51019;46.090;6.350;2023-04-15T06:36:54;95632.03;;;5.91;100.00
64610;BME280;51019;46.090;6.350;2023-04-15T06:39:22;95640.66;;;6.01;100.00
64610;BME280;51019;46.090;6.350;2023-04-15T06:41:49;95735.19;;;6.60;100.00
64610;BME280;51019;46.090;6.350;2023-04-15T06:44:17;95728.63;;;6.65;100.00
64610;BME280;51019;46.090;6.350;2023-04-15T06:46:44;95731.88;;;6.57;100.00
64610;BME280;51019;46.090;6.350;2023-04-15T06:49:12;95732.56;;;6.60;100.00
64610;BME280;51019;46.090;6.350;2023-04-15T06:51:39;95729.28;;;6.48;100.00
64610;BME280;51019;46.090;6.350;2023-04-15T06:54:08;95732.44;;;6.61;100.00
64610;BME280;51019;46.090;6.350;2023-04-15T06:56:35;95726.00;;;6.65;100.00
64610;BME280;51019;46.090;6.350;2023-04-15T06:59:03;95728.75;;;6.64;100.00
64610;BME280;51019;46.090;6.350;2023-04-15T07:01:30;95724.38;;;6.54;100.00
64610;BME280;51019;46.090;6.350;2023-04-15T07:03:57;95659.81;;;6.10;100.00
64610;BME280;51019;46.090;6.350;2023-04-15T07:06:24;95739.56;;;6.49;100.00
64610;BME280;51019;46.090;6.350;2023-04-15T07:08:52;95722.28;;;6.19;100.00
64610;BME280;51019;46.090;6.350;2023-04-15T07:11:22;95750.38;;;6.35;100.00
64610;BME280;51019;46.090;6.350;2023-04-15T07:13:49;95743.81;;;6.50;100.00
64610;BME280;51019;46.090;6.350;2023-04-15T07:16:17;95743.38;;;6.45;100.00
64610;BME280;51019;46.090;6.350;2023-04-15T07:18:44;95659.38;;;5.86;100.00
64610;BME280;51019;46.090;6.350;2023-04-15T07:21:12;95742.69;;;6.24;100.00
64610;BME280;51019;46.090;6.350;2023-04-15T07:23:41;95755.31;;;6.38;100.00
64610;BME280;51019;46.090;6.350;2023-04-15T07:26:08;95737.75;;;6.21;100.00
64610;BME280;51019;46.090;6.350;2023-04-15T07:28:37;95736.94;;;6.21;100.00
64610;BME280;51019;46.090;6.350;2023-04-15T07:31:05;95698.13;;;5.98;100.00
64610;BME280;51019;46.090;6.350;2023-04-15T07:33:32;95755.56;;;6.35;100.00
64610;BME280;51019;46.090;6.350;2023-04-15T07:36:00;95758.19;;;6.35;100.00
64610;BME280;51019;46.090;6.350;2023-04-15T07:38:28;95752.56;;;6.30;100.00
64610;BME280;51019;46.090;6.350;2023-04-15T07:40:55;95758.47;;;6.42;100.00
64610;BME280;51019;46.090;6.350;2023-04-15T07:43:23;95732.41;;;6.13;100.00
64610;BME280;51019;46.090;6.350;2023-04-15T07:45:52;95653.19;;;5.77;100.00
64610;BME280;51019;46.090;6.350;2023-04-15T07:48:20;95760.91;;;6.43;100.00
64610;BME280;51019;46.090;6.350;2023-04-15T07:50:47;95757.22;;;6.36;100.00
64610;BME280;51019;46.090;6.350;2023-04-15T07:53:14;95742.81;;;6.32;100.00
64610;BME280;51019;46.090;6.350;2023-04-15T07:55:41;95753.78;;;6.26;100.00
64610;BME280;51019;46.090;6.350;2023-04-15T07:58:09;95746.78;;;6.17;100.00
64610;BME280;51019;46.090;6.350;2023-04-15T08:00:36;95770.81;;;6.49;100.00
64610;BME280;51019;46.090;6.350;2023-04-15T08:03:06;95774.50;;;6.56;100.00
64610;BME280;51019;46.090;6.350;2023-04-15T08:05:33;95770.28;;;6.65;100.00
64610;BME280;51019;46.090;6.350;2023-04-15T08:08:01;95768.88;;;6.51;100.00
64610;BME280;51019;46.090;6.350;2023-04-15T08:10:28;95703.25;;;6.09;100.00
64610;BME280;51019;46.090;6.350;2023-04-15T08:12:56;95709.41;;;6.08;100.00
64610;BME280;51019;46.090;6.350;2023-04-15T08:15:24;95753.66;;;6.37;100.00
64610;BME280;51019;46.090;6.350;2023-04-15T08:17:51;95769.84;;;6.60;100.00
64610;BME280;51019;46.090;6.350;2023-04-15T08:20:21;95708.47;;;6.09;100.00
64610;BME280;51019;46.090;6.350;2023-04-15T08:22:48;95784.25;;;6.54;100.00
64610;BME280;51019;46.090;6.350;2023-04-15T08:25:16;95768.72;;;6.43;100.00
64610;BME280;51019;46.090;6.350;2023-04-15T08:27:44;95749.38;;;6.07;100.00
64610;BME280;51019;46.090;6.350;2023-04-15T08:30:12;95749.44;;;5.87;100.00
64610;BME280;51019;46.090;6.350;2023-04-15T08:32:41;95747.56;;;5.58;100.00
64610;BME280;51019;46.090;6.350;2023-04-15T08:35:08;95820.56;;;6.06;100.00
64610;BME280;51019;46.090;6.350;2023-04-15T08:37:38;95722.91;;;5.53;100.00
64610;BME280;51019;46.090;6.350;2023-04-15T08:40:06;95810.28;;;6.05;100.00
64610;BME280;51019;46.090;6.350;2023-04-15T08:42:36;95749.19;;;5.59;100.00
64610;BME280;51019;46.090;6.350;2023-04-15T08:45:07;95822.03;;;5.99;100.00
64610;BME280;51019;46.090;6.350;2023-04-15T08:47:37;95834.06;;;5.91;100.00
64610;BME280;51019;46.090;6.350;2023-04-15T08:50:08;95800.19;;;5.81;100.00
64610;BME280;51019;46.090;6.350;2023-04-15T08:52:38;95814.13;;;5.80;100.00
64610;BME280;51019;46.090;6.350;2023-04-15T08:55:07;95775.00;;;5.41;100.00
64610;BME280;51019;46.090;6.350;2023-04-15T08:57:36;95821.72;;;5.62;100.00
64610;BME280;51019;46.090;6.350;2023-04-15T09:00:05;95773.66;;;5.57;100.00
64610;BME280;51019;46.090;6.350;2023-04-15T09:02:34;95827.00;;;5.81;100.00
64610;BME280;51019;46.090;6.350;2023-04-15T09:05:01;95729.00;;;5.11;100.00
64610;BME280;51019;46.090;6.350;2023-04-15T09:07:32;95743.97;;;5.19;100.00
64610;BME280;51019;46.090;6.350;2023-04-15T09:10:03;95760.34;;;5.20;100.00
64610;BME280;51019;46.090;6.350;2023-04-15T09:12:33;95840.09;;;5.70;100.00
64610;BME280;51019;46.090;6.350;2023-04-15T09:15:01;95787.91;;;5.32;100.00
64610;BME280;51019;46.090;6.350;2023-04-15T09:17:32;95846.78;;;5.63;100.00
64610;BME280;51019;46.090;6.350;2023-04-15T09:20:07;95802.16;;;5.37;100.00
64610;BME280;51019;46.090;6.350;2023-04-15T09:22:35;95869.81;;;5.77;100.00
64610;BME280;51019;46.090;6.350;2023-04-15T09:25:24;95862.44;;;5.73;100.00
64610;BME280;51019;46.090;6.350;2023-04-15T09:27:53;95861.44;;;5.64;100.00
64610;BME280;51019;46.090;6.350;2023-04-15T09:30:22;95878.84;;;5.73;100.00
64610;BME280;51019;46.090;6.350;2023-04-15T09:32:50;95854.81;;;5.60;100.00
64610;BME280;51019;46.090;6.350;2023-04-15T09:35:18;95819.72;;;5.45;100.00
64610;BME280;51019;46.090;6.350;2023-04-15T09:37:46;95817.00;;;5.26;100.00
64610;BME280;51019;46.090;6.350;2023-04-15T09:40:30;95870.19;;;5.63;100.00
64610;BME280;51019;46.090;6.350;2023-04-15T09:42:58;95886.78;;;5.72;100.00
64610;BME280;51019;46.090;6.350;2023-04-15T09:45:26;95889.81;;;5.56;100.00
64610;BME280;51019;46.090;6.350;2023-04-15T09:47:56;95897.81;;;5.64;100.00
64610;BME280;51019;46.090;6.350;2023-04-15T09:50:27;95841.72;;;5.20;100.00
64610;BME280;51019;46.090;6.350;2023-04-15T09:52:55;95797.06;;;4.85;100.00
64610;BME280;51019;46.090;6.350;2023-04-15T09:55:26;95799.50;;;4.86;100.00
64610;BME280;51019;46.090;6.350;2023-04-15T09:57:53;95916.16;;;5.63;100.00
64610;BME280;51019;46.090;6.350;2023-04-15T10:00:21;95888.88;;;5.36;100.00
64610;BME280;51019;46.090;6.350;2023-04-15T10:02:48;95815.81;;;4.77;100.00
64610;BME280;51019;46.090;6.350;2023-04-15T10:05:16;95922.16;;;5.63;100.00
64610;BME280;51019;46.090;6.350;2023-04-15T10:07:44;95838.16;;;5.00;100.00
64610;BME280;51019;46.090;6.350;2023-04-15T10:10:13;95860.41;;;5.14;100.00
64610;BME280;51019;46.090;6.350;2023-04-15T10:12:43;95896.09;;;5.33;100.00
64610;BME280;51019;46.090;6.350;2023-04-15T10:15:14;95876.56;;;5.18;100.00
64610;BME280;51019;46.090;6.350;2023-04-15T10:17:43;95934.34;;;5.63;100.00
64610;BME280;51019;46.090;6.350;2023-04-15T10:20:14;95899.22;;;5.47;100.00
64610;BME280;51019;46.090;6.350;2023-04-15T10:22:44;95940.56;;;5.71;100.00
64610;BME280;51019;46.090;6.350;2023-04-15T10:25:14;95914.63;;;5.60;100.00
64610;BME280;51019;46.090;6.350;2023-04-15T10:27:43;95930.66;;;5.86;100.00
64610;BME280;51019;46.090;6.350;2023-04-15T10:30:13;95958.25;;;5.98;100.00
64610;BME280;51019;46.090;6.350;2023-04-15T10:32:41;95800.03;;;5.22;100.00
64610;BME280;51019;46.090;6.350;2023-04-15T10:35:11;95960.41;;;6.44;100.00
64610;BME280;51019;46.090;6.350;2023-04-15T10:37:39;95973.19;;;6.57;100.00
64610;BME280;51019;46.090;6.350;2023-04-15T10:40:27;95969.69;;;6.37;100.00
64610;BME280;51019;46.090;6.350;2023-04-15T10:42:59;95850.53;;;5.50;100.00
64610;BME280;51019;46.090;6.350;2023-04-15T10:45:27;95965.56;;;6.35;100.00
64610;BME280;51019;46.090;6.350;2023-04-15T10:47:55;95966.97;;;6.39;100.00
64610;BME280;51019;46.090;6.350;2023-04-15T10:50:25;95943.91;;;6.34;100.00
64610;BME280;51019;46.090;6.350;2023-04-15T10:52:55;95982.91;;;6.55;100.00
64610;BME280;51019;46.090;6.350;2023-04-15T10:55:23;95970.59;;;6.27;100.00
64610;BME280;51019;46.090;6.350;2023-04-15T10:57:52;95955.69;;;6.29;100.00
64610;BME280;51019;46.090;6.350;2023-04-15T11:00:24;95921.53;;;6.22;100.00
64610;BME280;51019;46.090;6.350;2023-04-15T11:02:54;95836.59;;;5.51;100.00
64610;BME280;51019;46.090;6.350;2023-04-15T11:05:49;96014.69;;;6.49;100.00
64610;BME280;51019;46.090;6.350;2023-04-15T11:08:10;95896.41;;;5.81;100.00
64610;BME280;51019;46.090;6.350;2023-04-15T11:10:50;95942.72;;;6.38;100.00
64610;BME280;51019;46.090;6.350;2023-04-15T11:13:31;96003.75;;;6.95;100.00
64610;BME280;51019;46.090;6.350;2023-04-15T11:16:02;95884.69;;;6.17;100.00
64610;BME280;51019;46.090;6.350;2023-04-15T11:18:31;96015.81;;;6.96;100.00
64610;BME280;51019;46.090;6.350;2023-04-15T11:21:01;96000.78;;;7.19;100.00
64610;BME280;51019;46.090;6.350;2023-04-15T11:23:33;96013.72;;;7.40;100.00
64610;BME280;51019;46.090;6.350;2023-04-15T11:26:02;96018.09;;;7.29;100.00
64610;BME280;51019;46.090;6.350;2023-04-15T11:28:34;95955.91;;;6.96;100.00
64610;BME280;51019;46.090;6.350;2023-04-15T11:31:08;96014.00;;;7.85;100.00
64610;BME280;51019;46.090;6.350;2023-04-15T11:33:37;96017.59;;;7.74;100.00
64610;BME280;51019;46.090;6.350;2023-04-15T11:36:07;95991.34;;;7.47;100.00
64610;BME280;51019;46.090;6.350;2023-04-15T11:38:34;95864.16;;;6.73;100.00
64610;BME280;51019;46.090;6.350;2023-04-15T11:41:02;95993.41;;;7.72;100.00
64610;BME280;51019;46.090;6.350;2023-04-15T11:43:31;96016.19;;;7.99;100.00
64610;BME280;51019;46.090;6.350;2023-04-15T11:46:01;96018.38;;;8.03;100.00
64610;BME280;51019;46.090;6.350;2023-04-15T11:48:33;96015.47;;;8.16;100.00
64610;BME280;51019;46.090;6.350;2023-04-15T11:51:02;95999.56;;;8.10;100.00
64610;BME280;51019;46.090;6.350;2023-04-15T11:53:38;96033.75;;;8.07;100.00
64610;BME280;51019;46.090;6.350;2023-04-15T11:56:07;95998.09;;;7.78;100.00
64610;BME280;51019;46.090;6.350;2023-04-15T11:58:35;96030.19;;;7.59;100.00
64610;BME280;51019;46.090;6.350;2023-04-15T12:01:05;95965.81;;;7.60;100.00
64610;BME280;51019;46.090;6.350;2023-04-15T12:03:39;96019.72;;;8.27;100.00
64610;BME280;51019;46.090;6.350;2023-04-15T12:06:15;95950.59;;;7.46;100.00
64610;BME280;51019;46.090;6.350;2023-04-15T12:08:57;95966.78;;;7.40;100.00
64610;BME280;51019;46.090;6.350;2023-04-15T12:11:38;96033.22;;;7.84;100.00
64610;BME280;51019;46.090;6.350;2023-04-15T12:14:09;96044.22;;;8.07;100.00
64610;BME280;51019;46.090;6.350;2023-04-15T12:16:39;96035.13;;;8.20;100.00
64610;BME280;51019;46.090;6.350;2023-04-15T12:19:09;96008.75;;;8.04;100.00
64610;BME280;51019;46.090;6.350;2023-04-15T12:21:39;96028.28;;;7.90;100.00
64610;BME280;51019;46.090;6.350;2023-04-15T12:24:07;96006.03;;;7.86;100.00
64610;BME280;51019;46.090;6.350;2023-04-15T12:26:36;96034.47;;;7.99;100.00
64610;BME280;51019;46.090;6.350;2023-04-15T12:29:05;96034.06;;;7.84;100.00
64610;BME280;51019;46.090;6.350;2023-04-15T12:31:34;96037.34;;;7.86;100.00
64610;BME280;51019;46.090;6.350;2023-04-15T12:34:02;96027.75;;;7.87;100.00
64610;BME280;51019;46.090;6.350;2023-04-15T12:36:35;96052.75;;;7.89;100.00
64610;BME280;51019;46.090;6.350;2023-04-15T12:39:03;96029.63;;;8.14;100.00
64610;BME280;51019;46.090;6.350;2023-04-15T12:41:30;96036.19;;;8.27;100.00
64610;BME280;51019;46.090;6.350;2023-04-15T12:43:58;96048.16;;;8.86;100.00
64610;BME280;51019;46.090;6.350;2023-04-15T12:46:26;96049.03;;;9.04;100.00
64610;BME280;51019;46.090;6.350;2023-04-15T12:48:53;95979.19;;;8.69;100.00
64610;BME280;51019;46.090;6.350;2023-04-15T12:51:21;96056.50;;;9.54;100.00
64610;BME280;51019;46.090;6.350;2023-04-15T12:53:50;96061.78;;;10.25;100.00
64610;BME280;51019;46.090;6.350;2023-04-15T12:56:17;95989.81;;;10.37;100.00
64610;BME280;51019;46.090;6.350;2023-04-15T12:58:44;95934.16;;;10.17;100.00
64610;BME280;51019;46.090;6.350;2023-04-15T13:01:11;96031.59;;;10.03;100.00
64610;BME280;51019;46.090;6.350;2023-04-15T13:03:38;96046.13;;;9.80;100.00
64610;BME280;51019;46.090;6.350;2023-04-15T13:06:06;96056.13;;;9.67;100.00
64610;BME280;51019;46.090;6.350;2023-04-15T13:08:34;96033.97;;;9.43;100.00